sensor_id;sensor_type;location;lat;lon;timestamp;P1;durP1;ratioP1;P2;durP2;ratioP2
4911;SDS011;2471;47.056;8.350;2023-02-01T00:01:36;14.00;;;9.13;;
4911;SDS011;2471;47.056;8.350;2023-02-01T00:04:02;18.83;;;8.73;;
4911;SDS011;2471;47.056;8.350;2023-02-01T00:06:28;18.43;;;10.00;;
4911;SDS011;2471;47.056;8.350;2023-02-01T00:08:54;19.30;;;9.20;;
4911;SDS011;2471;47.056;8.350;2023-02-01T00:11:20;14.57;;;8.50;;
4911;SDS011;2471;47.056;8.350;2023-02-01T00:13:46;13.60;;;8.13;;
4911;SDS011;2471;47.056;8.350;2023-02-01T00:16:14;16.87;;;9.83;;
4911;SDS011;2471;47.056;8.350;2023-02-01T00:18:43;15.20;;;9.10;;
4911;SDS011;2471;47.056;8.350;2023-02-01T00:21:13;15.80;;;9.30;;
4911;SDS011;2471;47.056;8.350;2023-02-01T00:23:39;16.53;;;9.87;;
4911;SDS011;2471;47.056;8.350;2023-02-01T00:26:09;20.87;;;11.20;;
4911;SDS011;2471;47.056;8.350;2023-02-01T00:28:36;14.20;;;8.60;;
4911;SDS011;2471;47.056;8.350;2023-02-01T00:31:03;16.40;;;9.73;;
4911;SDS011;2471;47.056;8.350;2023-02-01T00:33:29;19.10;;;10.23;;
4911;SDS011;2471;47.056;8.350;2023-02-01T00:35:56;14.43;;;9.63;;
4911;SDS011;2471;47.056;8.350;2023-02-01T00:38:23;14.10;;;9.70;;
4911;SDS011;2471;47.056;8.350;2023-02-01T00:40:49;20.83;;;10.20;;
4911;SDS011;2471;47.056;8.350;2023-02-01T00:43:15;19.53;;;9.50;;
4911;SDS011;2471;47.056;8.350;2023-02-01T00:45:41;19.63;;;10.70;;
4911;SDS011;2471;47.056;8.350;2023-02-01T00:48:07;20.13;;;9.60;;
4911;SDS011;2471;47.056;8.350;2023-02-01T00:50:33;19.63;;;9.93;;
4911;SDS011;2471;47.056;8.350;2023-02-01T00:52:58;20.80;;;11.47;;
4911;SDS011;2471;47.056;8.350;2023-02-01T00:55:24;17.10;;;9.80;;
4911;SDS011;2471;47.056;8.350;2023-02-01T00:57:50;15.30;;;9.77;;
4911;SDS011;2471;47.056;8.350;2023-02-01T01:00:17;17.87;;;10.77;;
4911;SDS011;2471;47.056;8.350;2023-02-01T01:02:43;15.63;;;9.53;;
4911;SDS011;2471;47.056;8.350;2023-02-01T01:05:09;19.07;;;9.70;;
4911;SDS011;2471;47.056;8.350;2023-02-01T01:07:35;17.10;;;10.13;;
4911;SDS011;2471;47.056;8.350;2023-02-01T01:10:01;20.77;;;10.37;;
4911;SDS011;2471;47.056;8.350;2023-02-01T01:12:27;17.90;;;9.27;;
4911;SDS011;2471;47.056;8.350;2023-02-01T01:14:53;19.23;;;11.60;;
4911;SDS011;2471;47.056;8.350;2023-02-01T01:17:19;19.27;;;11.27;;
4911;SDS011;2471;47.056;8.350;2023-02-01T01:19:44;17.57;;;9.60;;
4911;SDS011;2471;47.056;8.350;2023-02-01T01:22:10;17.07;;;10.20;;
4911;SDS011;2471;47.056;8.350;2023-02-01T01:24:36;16.37;;;9.40;;
4911;SDS011;2471;47.056;8.350;2023-02-01T01:27:02;10.53;;;7.53;;
4911;SDS011;2471;47.056;8.350;2023-02-01T01:29:28;15.30;;;8.93;;
4911;SDS011;2471;47.056;8.350;2023-02-01T01:31:54;11.97;;;8.43;;
4911;SDS011;2471;47.056;8.350;2023-02-01T01:34:20;19.43;;;9.03;;
4911;SDS011;2471;47.056;8.350;2023-02-01T01:36:46;16.13;;;9.70;;
4911;SDS011;2471;47.056;8.350;2023-02-01T01:39:12;17.23;;;9.80;;
4911;SDS011;2471;47.056;8.350;2023-02-01T01:41:38;22.00;;;11.70;;
4911;SDS011;2471;47.056;8.350;2023-02-01T01:44:05;19.80;;;10.67;;
4911;SDS011;2471;47.056;8.350;2023-02-01T01:46:32;14.97;;;8.77;;
4911;SDS011;2471;47.056;8.350;2023-02-01T01:51:24;17.20;;;9.33;;
4911;SDS011;2471;47.056;8.350;2023-02-01T01:53:58;19.20;;;11.80;;
4911;SDS011;2471;47.056;8.350;2023-02-01T01:56:26;19.63;;;9.60;;
4911;SDS011;2471;47.056;8.350;2023-02-01T01:58:52;15.10;;;8.17;;
4911;SDS011;2471;47.056;8.350;2023-02-01T02:01:18;18.30;;;10.57;;
4911;SDS011;2471;47.056;8.350;2023-02-01T02:03:44;15.93;;;10.27;;
4911;SDS011;2471;47.056;8.350;2023-02-01T02:08:57;14.10;;;9.57;;
4911;SDS011;2471;47.056;8.350;2023-02-01T02:11:23;15.70;;;9.70;;
4911;SDS011;2471;47.056;8.350;2023-02-01T02:13:50;20.83;;;11.30;;
4911;SDS011;2471;47.056;8.350;2023-02-01T02:18:55;22.33;;;11.40;;
4911;SDS011;2471;47.056;8.350;2023-02-01T02:21:30;18.00;;;11.00;;
4911;SDS011;2471;47.056;8.350;2023-02-01T02:26:54;18.60;;;11.10;;
4911;SDS011;2471;47.056;8.350;2023-02-01T02:29:26;15.20;;;9.77;;
4911;SDS011;2471;47.056;8.350;2023-02-01T02:32:07;24.43;;;12.77;;
4911;SDS011;2471;47.056;8.350;2023-02-01T02:42:17;18.50;;;10.67;;
4911;SDS011;2471;47.056;8.350;2023-02-01T02:45:07;17.50;;;10.80;;
4911;SDS011;2471;47.056;8.350;2023-02-01T02:50:36;18.93;;;10.20;;
4911;SDS011;2471;47.056;8.350;2023-02-01T02:53:27;17.47;;;10.43;;
4911;SDS011;2471;47.056;8.350;2023-02-01T02:56:13;14.73;;;10.27;;
4911;SDS011;2471;47.056;8.350;2023-02-01T02:58:58;16.47;;;10.03;;
4911;SDS011;2471;47.056;8.350;2023-02-01T03:01:42;18.33;;;9.80;;
4911;SDS011;2471;47.056;8.350;2023-02-01T03:04:27;18.93;;;11.87;;
4911;SDS011;2471;47.056;8.350;2023-02-01T03:06:53;19.67;;;10.97;;
4911;SDS011;2471;47.056;8.350;2023-02-01T03:09:27;19.00;;;10.60;;
4911;SDS011;2471;47.056;8.350;2023-02-01T03:11:59;18.03;;;11.10;;
4911;SDS011;2471;47.056;8.350;2023-02-01T03:14:46;19.23;;;10.37;;
4911;SDS011;2471;47.056;8.350;2023-02-01T03:17:17;17.63;;;11.70;;
4911;SDS011;2471;47.056;8.350;2023-02-01T03:19:45;22.77;;;11.40;;
4911;SDS011;2471;47.056;8.350;2023-02-01T03:22:24;17.70;;;11.00;;
4911;SDS011;2471;47.056;8.350;2023-02-01T03:25:00;17.33;;;10.53;;
4911;SDS011;2471;47.056;8.350;2023-02-01T03:27:29;16.20;;;10.60;;
4911;SDS011;2471;47.056;8.350;2023-02-01T03:29:58;16.50;;;11.33;;
4911;SDS011;2471;47.056;8.350;2023-02-01T03:32:25;21.70;;;10.70;;
4911;SDS011;2471;47.056;8.350;2023-02-01T03:34:51;18.60;;;10.57;;
4911;SDS011;2471;47.056;8.350;2023-02-01T03:37:22;19.23;;;11.07;;
4911;SDS011;2471;47.056;8.350;2023-02-01T03:39:52;23.50;;;11.77;;
4911;SDS011;2471;47.056;8.350;2023-02-01T03:42:27;48.60;;;19.00;;
4911;SDS011;2471;47.056;8.350;2023-02-01T03:45:01;43.00;;;15.40;;
4911;SDS011;2471;47.056;8.350;2023-02-01T03:47:30;19.17;;;11.60;;
4911;SDS011;2471;47.056;8.350;2023-02-01T03:49:59;42.87;;;17.90;;
4911;SDS011;2471;47.056;8.350;2023-02-01T03:52:33;45.60;;;20.57;;
4911;SDS011;2471;47.056;8.350;2023-02-01T03:55:02;27.13;;;13.60;;
4911;SDS011;2471;47.056;8.350;2023-02-01T03:57:31;18.53;;;11.70;;
4911;SDS011;2471;47.056;8.350;2023-02-01T04:00:05;21.17;;;12.83;;
4911;SDS011;2471;47.056;8.350;2023-02-01T04:02:33;23.70;;;13.10;;
4911;SDS011;2471;47.056;8.350;2023-02-01T04:04:59;24.13;;;13.60;;
4911;SDS011;2471;47.056;8.350;2023-02-01T04:07:25;20.67;;;12.00;;
4911;SDS011;2471;47.056;8.350;2023-02-01T04:09:51;20.13;;;12.67;;
4911;SDS011;2471;47.056;8.350;2023-02-01T04:12:17;17.20;;;10.90;;
4911;SDS011;2471;47.056;8.350;2023-02-01T04:14:43;17.53;;;12.10;;
4911;SDS011;2471;47.056;8.350;2023-02-01T04:17:09;18.33;;;10.73;;
4911;SDS011;2471;47.056;8.350;2023-02-01T04:19:35;21.87;;;11.77;;
4911;SDS011;2471;47.056;8.350;2023-02-01T04:22:01;17.43;;;11.50;;
4911;SDS011;2471;47.056;8.350;2023-02-01T04:24:27;16.67;;;11.83;;
4911;SDS011;2471;47.056;8.350;2023-02-01T04:26:53;17.47;;;11.00;;
4911;SDS011;2471;47.056;8.350;2023-02-01T04:29:19;17.63;;;9.70;;
4911;SDS011;2471;47.056;8.350;2023-02-01T04:31:44;17.80;;;10.27;;
4911;SDS011;2471;47.056;8.350;2023-02-01T04:34:11;20.17;;;11.77;;
4911;SDS011;2471;47.056;8.350;2023-02-01T04:36:37;16.20;;;10.07;;
4911;SDS011;2471;47.056;8.350;2023-02-01T04:39:03;24.13;;;12.70;;
4911;SDS011;2471;47.056;8.350;2023-02-01T04:41:29;19.50;;;12.03;;
4911;SDS011;2471;47.056;8.350;2023-02-01T04:43:55;23.07;;;14.10;;
4911;SDS011;2471;47.056;8.350;2023-02-01T04:46:21;24.13;;;12.60;;
4911;SDS011;2471;47.056;8.350;2023-02-01T04:48:47;19.60;;;12.17;;
4911;SDS011;2471;47.056;8.350;2023-02-01T04:51:13;27.17;;;12.07;;
4911;SDS011;2471;47.056;8.350;2023-02-01T04:53:40;20.97;;;12.03;;
4911;SDS011;2471;47.056;8.350;2023-02-01T04:56:06;23.27;;;12.00;;
4911;SDS011;2471;47.056;8.350;2023-02-01T04:58:32;18.80;;;10.93;;
4911;SDS011;2471;47.056;8.350;2023-02-01T05:00:58;16.67;;;10.37;;
4911;SDS011;2471;47.056;8.350;2023-02-01T05:03:24;25.27;;;11.70;;
4911;SDS011;2471;47.056;8.350;2023-02-01T05:05:50;18.20;;;11.07;;
4911;SDS011;2471;47.056;8.350;2023-02-01T05:08:18;17.70;;;11.73;;
4911;SDS011;2471;47.056;8.350;2023-02-01T05:10:44;23.07;;;13.20;;
4911;SDS011;2471;47.056;8.350;2023-02-01T05:13:10;24.10;;;13.37;;
4911;SDS011;2471;47.056;8.350;2023-02-01T05:15:55;21.20;;;13.13;;
4911;SDS011;2471;47.056;8.350;2023-02-01T05:18:21;19.17;;;12.87;;
4911;SDS011;2471;47.056;8.350;2023-02-01T05:20:47;23.17;;;12.90;;
4911;SDS011;2471;47.056;8.350;2023-02-01T05:23:13;20.63;;;11.80;;
4911;SDS011;2471;47.056;8.350;2023-02-01T05:25:39;25.23;;;12.83;;
4911;SDS011;2471;47.056;8.350;2023-02-01T05:28:05;21.27;;;12.33;;
4911;SDS011;2471;47.056;8.350;2023-02-01T05:30:31;17.37;;;9.93;;
4911;SDS011;2471;47.056;8.350;2023-02-01T05:33:00;20.90;;;12.07;;
4911;SDS011;2471;47.056;8.350;2023-02-01T05:35:26;19.50;;;11.87;;
4911;SDS011;2471;47.056;8.350;2023-02-01T05:37:51;27.70;;;13.00;;
4911;SDS011;2471;47.056;8.350;2023-02-01T05:40:17;23.03;;;12.40;;
4911;SDS011;2471;47.056;8.350;2023-02-01T05:42:43;25.43;;;13.20;;
4911;SDS011;2471;47.056;8.350;2023-02-01T05:45:09;24.13;;;11.00;;
4911;SDS011;2471;47.056;8.350;2023-02-01T05:47:35;21.80;;;11.43;;
4911;SDS011;2471;47.056;8.350;2023-02-01T05:50:02;23.00;;;11.37;;
4911;SDS011;2471;47.056;8.350;2023-02-01T05:52:28;19.77;;;12.17;;
4911;SDS011;2471;47.056;8.350;2023-02-01T05:54:54;24.77;;;12.57;;
4911;SDS011;2471;47.056;8.350;2023-02-01T05:57:20;20.17;;;13.03;;
4911;SDS011;2471;47.056;8.350;2023-02-01T05:59:46;19.20;;;11.53;;
4911;SDS011;2471;47.056;8.350;2023-02-01T06:02:13;25.13;;;13.00;;
4911;SDS011;2471;47.056;8.350;2023-02-01T06:04:39;22.00;;;11.63;;
4911;SDS011;2471;47.056;8.350;2023-02-01T06:07:06;21.03;;;11.50;;
4911;SDS011;2471;47.056;8.350;2023-02-01T06:09:32;18.13;;;10.60;;
4911;SDS011;2471;47.056;8.350;2023-02-01T06:11:58;22.70;;;13.03;;
4911;SDS011;2471;47.056;8.350;2023-02-01T06:14:25;16.97;;;11.13;;
4911;SDS011;2471;47.056;8.350;2023-02-01T06:16:52;17.83;;;9.67;;
4911;SDS011;2471;47.056;8.350;2023-02-01T06:19:18;17.37;;;11.00;;
4911;SDS011;2471;47.056;8.350;2023-02-01T06:21:44;20.90;;;10.83;;
4911;SDS011;2471;47.056;8.350;2023-02-01T06:24:10;21.77;;;10.20;;
4911;SDS011;2471;47.056;8.350;2023-02-01T06:26:36;22.03;;;10.30;;
4911;SDS011;2471;47.056;8.350;2023-02-01T06:29:03;19.50;;;10.93;;
4911;SDS011;2471;47.056;8.350;2023-02-01T06:31:31;21.33;;;12.20;;
4911;SDS011;2471;47.056;8.350;2023-02-01T06:33:57;18.20;;;9.60;;
4911;SDS011;2471;47.056;8.350;2023-02-01T06:36:23;17.67;;;10.70;;
4911;SDS011;2471;47.056;8.350;2023-02-01T06:38:49;16.47;;;9.93;;
4911;SDS011;2471;47.056;8.350;2023-02-01T06:41:15;15.70;;;10.30;;
4911;SDS011;2471;47.056;8.350;2023-02-01T06:43:41;19.10;;;10.40;;
4911;SDS011;2471;47.056;8.350;2023-02-01T06:46:09;19.07;;;11.20;;
4911;SDS011;2471;47.056;8.350;2023-02-01T06:48:36;17.50;;;11.10;;
4911;SDS011;2471;47.056;8.350;2023-02-01T06:51:02;15.70;;;9.30;;
4911;SDS011;2471;47.056;8.350;2023-02-01T06:53:29;19.53;;;11.10;;
4911;SDS011;2471;47.056;8.350;2023-02-01T06:55:56;15.20;;;10.63;;
4911;SDS011;2471;47.056;8.350;2023-02-01T06:58:22;17.60;;;9.80;;
4911;SDS011;2471;47.056;8.350;2023-02-01T07:00:48;14.20;;;9.20;;
4911;SDS011;2471;47.056;8.350;2023-02-01T07:03:14;14.73;;;8.83;;
4911;SDS011;2471;47.056;8.350;2023-02-01T07:05:40;15.53;;;9.27;;
4911;SDS011;2471;47.056;8.350;2023-02-01T07:08:06;19.03;;;10.30;;
4911;SDS011;2471;47.056;8.350;2023-02-01T07:10:33;15.97;;;9.53;;
4911;SDS011;2471;47.056;8.350;2023-02-01T07:12:59;15.00;;;9.20;;
4911;SDS011;2471;47.056;8.350;2023-02-01T07:15:25;18.43;;;9.40;;
4911;SDS011;2471;47.056;8.350;2023-02-01T07:17:53;16.77;;;9.50;;
4911;SDS011;2471;47.056;8.350;2023-02-01T07:20:19;13.17;;;8.40;;
4911;SDS011;2471;47.056;8.350;2023-02-01T07:22:45;12.27;;;7.90;;
4911;SDS011;2471;47.056;8.350;2023-02-01T07:25:11;11.77;;;7.43;;
4911;SDS011;2471;47.056;8.350;2023-02-01T07:27:37;16.87;;;9.70;;
4911;SDS011;2471;47.056;8.350;2023-02-01T07:30:04;12.57;;;8.47;;
4911;SDS011;2471;47.056;8.350;2023-02-01T07:32:30;13.70;;;8.63;;
4911;SDS011;2471;47.056;8.350;2023-02-01T07:34:56;21.47;;;8.43;;
4911;SDS011;2471;47.056;8.350;2023-02-01T07:37:23;11.60;;;8.23;;
4911;SDS011;2471;47.056;8.350;2023-02-01T07:39:49;13.13;;;7.60;;
4911;SDS011;2471;47.056;8.350;2023-02-01T07:42:15;12.00;;;8.10;;
4911;SDS011;2471;47.056;8.350;2023-02-01T07:44:41;13.43;;;7.97;;
4911;SDS011;2471;47.056;8.350;2023-02-01T07:47:07;12.87;;;9.30;;
4911;SDS011;2471;47.056;8.350;2023-02-01T07:49:33;16.77;;;9.83;;
4911;SDS011;2471;47.056;8.350;2023-02-01T07:51:59;15.00;;;9.60;;
4911;SDS011;2471;47.056;8.350;2023-02-01T07:54:25;15.93;;;10.30;;
4911;SDS011;2471;47.056;8.350;2023-02-01T07:56:51;16.47;;;9.43;;
4911;SDS011;2471;47.056;8.350;2023-02-01T07:59:17;14.67;;;7.97;;
4911;SDS011;2471;47.056;8.350;2023-02-01T08:01:43;12.47;;;7.63;;
4911;SDS011;2471;47.056;8.350;2023-02-01T08:04:10;12.13;;;7.70;;
4911;SDS011;2471;47.056;8.350;2023-02-01T08:06:36;10.50;;;6.80;;
4911;SDS011;2471;47.056;8.350;2023-02-01T08:09:03;15.73;;;8.67;;
4911;SDS011;2471;47.056;8.350;2023-02-01T08:11:29;12.70;;;8.87;;
4911;SDS011;2471;47.056;8.350;2023-02-01T08:13:55;16.77;;;8.70;;
4911;SDS011;2471;47.056;8.350;2023-02-01T08:16:21;14.60;;;7.70;;
4911;SDS011;2471;47.056;8.350;2023-02-01T08:18:48;13.23;;;8.50;;
4911;SDS011;2471;47.056;8.350;2023-02-01T08:21:15;16.10;;;9.60;;
4911;SDS011;2471;47.056;8.350;2023-02-01T08:23:42;24.63;;;14.73;;
4911;SDS011;2471;47.056;8.350;2023-02-01T08:26:08;13.57;;;8.23;;
4911;SDS011;2471;47.056;8.350;2023-02-01T08:28:35;11.03;;;8.33;;
4911;SDS011;2471;47.056;8.350;2023-02-01T08:31:05;11.97;;;7.67;;
4911;SDS011;2471;47.056;8.350;2023-02-01T08:33:31;12.27;;;7.83;;
4911;SDS011;2471;47.056;8.350;2023-02-01T08:35:59;9.77;;;6.40;;
4911;SDS011;2471;47.056;8.350;2023-02-01T08:38:25;12.53;;;6.67;;
4911;SDS011;2471;47.056;8.350;2023-02-01T08:40:51;10.63;;;7.40;;
4911;SDS011;2471;47.056;8.350;2023-02-01T08:43:18;13.70;;;7.53;;
4911;SDS011;2471;47.056;8.350;2023-02-01T08:45:44;13.37;;;8.07;;
4911;SDS011;2471;47.056;8.350;2023-02-01T08:48:11;14.20;;;8.00;;
4911;SDS011;2471;47.056;8.350;2023-02-01T08:50:37;12.57;;;7.60;;
4911;SDS011;2471;47.056;8.350;2023-02-01T08:53:03;11.30;;;7.70;;
4911;SDS011;2471;47.056;8.350;2023-02-01T08:55:29;18.50;;;9.33;;
4911;SDS011;2471;47.056;8.350;2023-02-01T08:57:55;10.17;;;6.60;;
4911;SDS011;2471;47.056;8.350;2023-02-01T09:00:21;13.43;;;6.63;;
4911;SDS011;2471;47.056;8.350;2023-02-01T09:02:47;14.00;;;8.43;;
4911;SDS011;2471;47.056;8.350;2023-02-01T09:05:13;9.53;;;6.17;;
4911;SDS011;2471;47.056;8.350;2023-02-01T09:07:41;11.30;;;7.43;;
4911;SDS011;2471;47.056;8.350;2023-02-01T09:10:07;10.00;;;6.27;;
4911;SDS011;2471;47.056;8.350;2023-02-01T09:12:34;8.57;;;5.63;;
4911;SDS011;2471;47.056;8.350;2023-02-01T09:15:01;18.60;;;10.50;;
4911;SDS011;2471;47.056;8.350;2023-02-01T09:17:27;10.10;;;7.13;;
4911;SDS011;2471;47.056;8.350;2023-02-01T09:19:54;8.97;;;5.80;;
4911;SDS011;2471;47.056;8.350;2023-02-01T09:22:20;8.43;;;5.93;;
4911;SDS011;2471;47.056;8.350;2023-02-01T09:24:46;10.80;;;6.67;;
4911;SDS011;2471;47.056;8.350;2023-02-01T09:27:12;12.13;;;6.37;;
4911;SDS011;2471;47.056;8.350;2023-02-01T09:29:39;9.10;;;5.93;;
4911;SDS011;2471;47.056;8.350;2023-02-01T09:32:05;8.00;;;4.93;;
4911;SDS011;2471;47.056;8.350;2023-02-01T09:34:31;9.40;;;6.37;;
4911;SDS011;2471;47.056;8.350;2023-02-01T09:36:57;9.10;;;6.10;;
4911;SDS011;2471;47.056;8.350;2023-02-01T09:39:23;9.23;;;6.43;;
4911;SDS011;2471;47.056;8.350;2023-02-01T09:47:20;9.97;;;6.83;;
4911;SDS011;2471;47.056;8.350;2023-02-01T09:50:33;8.53;;;6.23;;
4911;SDS011;2471;47.056;8.350;2023-02-01T09:52:39;9.23;;;6.03;;
4911;SDS011;2471;47.056;8.350;2023-02-01T09:55:09;11.67;;;6.00;;
4911;SDS011;2471;47.056;8.350;2023-02-01T10:00:14;8.57;;;5.33;;
4911;SDS011;2471;47.056;8.350;2023-02-01T10:02:41;6.30;;;5.60;;
4911;SDS011;2471;47.056;8.350;2023-02-01T10:05:11;8.20;;;5.87;;
4911;SDS011;2471;47.056;8.350;2023-02-01T10:10:15;13.83;;;5.87;;
4911;SDS011;2471;47.056;8.350;2023-02-01T10:12:59;11.70;;;6.27;;
4911;SDS011;2471;47.056;8.350;2023-02-01T10:23:16;8.80;;;6.20;;
4911;SDS011;2471;47.056;8.350;2023-02-01T10:28:20;8.80;;;6.20;;
4911;SDS011;2471;47.056;8.350;2023-02-01T10:30:48;9.90;;;6.07;;
4911;SDS011;2471;47.056;8.350;2023-02-01T10:33:18;11.73;;;5.93;;
4911;SDS011;2471;47.056;8.350;2023-02-01T10:35:47;9.70;;;5.47;;
4911;SDS011;2471;47.056;8.350;2023-02-01T10:38:33;7.93;;;5.60;;
4911;SDS011;2471;47.056;8.350;2023-02-01T10:41:04;19.77;;;8.33;;
4911;SDS011;2471;47.056;8.350;2023-02-01T10:43:31;11.10;;;6.13;;
4911;SDS011;2471;47.056;8.350;2023-02-01T10:45:58;7.73;;;5.27;;
4911;SDS011;2471;47.056;8.350;2023-02-01T10:48:24;10.37;;;5.70;;
4911;SDS011;2471;47.056;8.350;2023-02-01T10:53:18;9.80;;;5.23;;
4911;SDS011;2471;47.056;8.350;2023-02-01T10:55:47;11.63;;;6.13;;
4911;SDS011;2471;47.056;8.350;2023-02-01T11:01:00;10.60;;;5.23;;
4911;SDS011;2471;47.056;8.350;2023-02-01T11:08:51;11.40;;;5.50;;
4911;SDS011;2471;47.056;8.350;2023-02-01T11:11:18;8.50;;;5.20;;
4911;SDS011;2471;47.056;8.350;2023-02-01T11:13:44;10.20;;;6.10;;
4911;SDS011;2471;47.056;8.350;2023-02-01T11:16:17;7.13;;;4.83;;
4911;SDS011;2471;47.056;8.350;2023-02-01T11:18:44;13.30;;;5.33;;
4911;SDS011;2471;47.056;8.350;2023-02-01T11:21:11;8.13;;;2.50;;
4911;SDS011;2471;47.056;8.350;2023-02-01T11:23:40;12.27;;;1.77;;
4911;SDS011;2471;47.056;8.350;2023-02-01T11:26:28;4.30;;;1.77;;
4911;SDS011;2471;47.056;8.350;2023-02-01T11:28:56;2.23;;;1.80;;
4911;SDS011;2471;47.056;8.350;2023-02-01T11:31:24;5.03;;;1.80;;
4911;SDS011;2471;47.056;8.350;2023-02-01T11:33:52;1.40;;;1.20;;
4911;SDS011;2471;47.056;8.350;2023-02-01T11:36:21;6.30;;;1.60;;
4911;SDS011;2471;47.056;8.350;2023-02-01T11:38:54;1.67;;;1.47;;
4911;SDS011;2471;47.056;8.350;2023-02-01T11:41:33;4.97;;;1.87;;
4911;SDS011;2471;47.056;8.350;2023-02-01T11:44:00;2.17;;;1.83;;
4911;SDS011;2471;47.056;8.350;2023-02-01T11:46:28;2.23;;;1.60;;
4911;SDS011;2471;47.056;8.350;2023-02-01T11:48:55;3.07;;;1.37;;
4911;SDS011;2471;47.056;8.350;2023-02-01T11:51:26;2.40;;;1.90;;
4911;SDS011;2471;47.056;8.350;2023-02-01T11:56:31;2.60;;;1.60;;
4911;SDS011;2471;47.056;8.350;2023-02-01T11:59:03;2.50;;;1.30;;
4911;SDS011;2471;47.056;8.350;2023-02-01T12:06:48;1.37;;;1.17;;
4911;SDS011;2471;47.056;8.350;2023-02-01T12:09:21;3.00;;;1.80;;
4911;SDS011;2471;47.056;8.350;2023-02-01T12:14:21;1.50;;;1.23;;
4911;SDS011;2471;47.056;8.350;2023-02-01T12:21:54;2.50;;;1.03;;
4911;SDS011;2471;47.056;8.350;2023-02-01T12:24:29;1.63;;;1.30;;
4911;SDS011;2471;47.056;8.350;2023-02-01T12:27:02;2.07;;;1.80;;
4911;SDS011;2471;47.056;8.350;2023-02-01T12:34:38;4.30;;;1.27;;
4911;SDS011;2471;47.056;8.350;2023-02-01T12:39:47;2.53;;;1.27;;
4911;SDS011;2471;47.056;8.350;2023-02-01T12:42:16;1.40;;;1.30;;
4911;SDS011;2471;47.056;8.350;2023-02-01T12:44:49;1.10;;;1.00;;
4911;SDS011;2471;47.056;8.350;2023-02-01T12:49:53;1.90;;;1.20;;
4911;SDS011;2471;47.056;8.350;2023-02-01T12:52:35;2.57;;;1.27;;
4911;SDS011;2471;47.056;8.350;2023-02-01T12:55:07;1.90;;;1.43;;
4911;SDS011;2471;47.056;8.350;2023-02-01T12:57:35;4.00;;;1.60;;
4911;SDS011;2471;47.056;8.350;2023-02-01T13:02:30;3.90;;;1.37;;
4911;SDS011;2471;47.056;8.350;2023-02-01T13:07:30;1.00;;;0.90;;
4911;SDS011;2471;47.056;8.350;2023-02-01T13:10:03;2.40;;;1.67;;
4911;SDS011;2471;47.056;8.350;2023-02-01T13:12:36;5.43;;;1.60;;
4911;SDS011;2471;47.056;8.350;2023-02-01T13:15:10;3.43;;;1.43;;
4911;SDS011;2471;47.056;8.350;2023-02-01T13:17:39;5.83;;;1.90;;
4911;SDS011;2471;47.056;8.350;2023-02-01T13:22:52;1.80;;;1.47;;
4911;SDS011;2471;47.056;8.350;2023-02-01T13:27:55;2.20;;;1.37;;
4911;SDS011;2471;47.056;8.350;2023-02-01T13:30:26;8.10;;;1.37;;
4911;SDS011;2471;47.056;8.350;2023-02-01T13:40:44;3.33;;;1.20;;
4911;SDS011;2471;47.056;8.350;2023-02-01T13:43:13;3.60;;;1.23;;
4911;SDS011;2471;47.056;8.350;2023-02-01T13:45:44;4.73;;;1.73;;
4911;SDS011;2471;47.056;8.350;2023-02-01T13:48:18;4.63;;;1.57;;
4911;SDS011;2471;47.056;8.350;2023-02-01T13:50:49;3.87;;;2.27;;
4911;SDS011;2471;47.056;8.350;2023-02-01T13:53:20;4.20;;;1.27;;
4911;SDS011;2471;47.056;8.350;2023-02-01T13:58:31;1.50;;;1.33;;
4911;SDS011;2471;47.056;8.350;2023-02-01T14:03:43;4.30;;;1.37;;
4911;SDS011;2471;47.056;8.350;2023-02-01T14:11:51;4.90;;;1.87;;
4911;SDS011;2471;47.056;8.350;2023-02-01T14:19:28;3.73;;;1.70;;
4911;SDS011;2471;47.056;8.350;2023-02-01T14:21:55;1.93;;;1.80;;
4911;SDS011;2471;47.056;8.350;2023-02-01T14:24:25;7.47;;;1.87;;
4911;SDS011;2471;47.056;8.350;2023-02-01T14:26:51;1.40;;;1.30;;
4911;SDS011;2471;47.056;8.350;2023-02-01T14:32:03;2.50;;;1.57;;
4911;SDS011;2471;47.056;8.350;2023-02-01T14:34:48;1.80;;;1.60;;
4911;SDS011;2471;47.056;8.350;2023-02-01T14:44:47;2.43;;;1.67;;
4911;SDS011;2471;47.056;8.350;2023-02-01T14:49:56;3.67;;;1.60;;
4911;SDS011;2471;47.056;8.350;2023-02-01T14:52:28;2.60;;;1.77;;
4911;SDS011;2471;47.056;8.350;2023-02-01T14:55:00;1.93;;;1.73;;
4911;SDS011;2471;47.056;8.350;2023-02-01T14:57:27;2.30;;;1.73;;
4911;SDS011;2471;47.056;8.350;2023-02-01T14:59:55;1.60;;;1.50;;
4911;SDS011;2471;47.056;8.350;2023-02-01T15:02:25;2.70;;;1.73;;
4911;SDS011;2471;47.056;8.350;2023-02-01T15:04:53;2.77;;;2.17;;
4911;SDS011;2471;47.056;8.350;2023-02-01T15:07:20;3.37;;;2.07;;
4911;SDS011;2471;47.056;8.350;2023-02-01T15:09:46;7.93;;;2.53;;
4911;SDS011;2471;47.056;8.350;2023-02-01T15:17:26;5.43;;;2.70;;
4911;SDS011;2471;47.056;8.350;2023-02-01T15:19:56;6.40;;;2.60;;
4911;SDS011;2471;47.056;8.350;2023-02-01T15:22:22;2.53;;;2.33;;
4911;SDS011;2471;47.056;8.350;2023-02-01T15:24:52;6.97;;;2.43;;
4911;SDS011;2471;47.056;8.350;2023-02-01T15:27:19;3.20;;;2.50;;
4911;SDS011;2471;47.056;8.350;2023-02-01T15:29:45;4.43;;;3.00;;
4911;SDS011;2471;47.056;8.350;2023-02-01T15:32:30;3.07;;;2.77;;
4911;SDS011;2471;47.056;8.350;2023-02-01T15:34:59;2.70;;;2.27;;
4911;SDS011;2471;47.056;8.350;2023-02-01T15:37:26;4.90;;;2.60;;
4911;SDS011;2471;47.056;8.350;2023-02-01T15:40:14;4.50;;;2.30;;
4911;SDS011;2471;47.056;8.350;2023-02-01T15:42:55;2.90;;;2.17;;
4911;SDS011;2471;47.056;8.350;2023-02-01T15:45:22;4.70;;;2.50;;
4911;SDS011;2471;47.056;8.350;2023-02-01T15:47:51;2.70;;;2.13;;
4911;SDS011;2471;47.056;8.350;2023-02-01T15:50:18;5.33;;;2.77;;
4911;SDS011;2471;47.056;8.350;2023-02-01T15:52:46;7.23;;;2.03;;
4911;SDS011;2471;47.056;8.350;2023-02-01T15:55:46;2.90;;;2.53;;
4911;SDS011;2471;47.056;8.350;2023-02-01T15:58:07;4.77;;;2.97;;
4911;SDS011;2471;47.056;8.350;2023-02-01T16:00:54;2.40;;;1.83;;
4911;SDS011;2471;47.056;8.350;2023-02-01T16:03:24;11.47;;;2.40;;
4911;SDS011;2471;47.056;8.350;2023-02-01T16:05:54;2.73;;;2.50;;
4911;SDS011;2471;47.056;8.350;2023-02-01T16:08:22;3.03;;;2.63;;
4911;SDS011;2471;47.056;8.350;2023-02-01T16:10:49;9.20;;;2.40;;
4911;SDS011;2471;47.056;8.350;2023-02-01T16:13:16;5.67;;;3.23;;
4911;SDS011;2471;47.056;8.350;2023-02-01T16:15:42;8.37;;;5.20;;
4911;SDS011;2471;47.056;8.350;2023-02-01T16:18:09;6.37;;;3.67;;
4911;SDS011;2471;47.056;8.350;2023-02-01T16:20:36;6.40;;;4.13;;
4911;SDS011;2471;47.056;8.350;2023-02-01T16:23:02;6.30;;;3.97;;
4911;SDS011;2471;47.056;8.350;2023-02-01T16:25:28;5.00;;;3.20;;
4911;SDS011;2471;47.056;8.350;2023-02-01T16:27:54;6.70;;;3.27;;
4911;SDS011;2471;47.056;8.350;2023-02-01T16:30:20;2.57;;;2.37;;
4911;SDS011;2471;47.056;8.350;2023-02-01T16:32:52;4.03;;;3.10;;
4911;SDS011;2471;47.056;8.350;2023-02-01T16:35:23;15.97;;;2.63;;
4911;SDS011;2471;47.056;8.350;2023-02-01T16:37:49;4.07;;;2.93;;
4911;SDS011;2471;47.056;8.350;2023-02-01T16:40:16;3.67;;;2.30;;
4911;SDS011;2471;47.056;8.350;2023-02-01T16:42:42;3.17;;;2.13;;
4911;SDS011;2471;47.056;8.350;2023-02-01T16:45:08;2.93;;;1.80;;
4911;SDS011;2471;47.056;8.350;2023-02-01T16:47:36;3.30;;;2.30;;
4911;SDS011;2471;47.056;8.350;2023-02-01T16:50:03;3.53;;;2.40;;
4911;SDS011;2471;47.056;8.350;2023-02-01T16:52:29;2.30;;;2.10;;
4911;SDS011;2471;47.056;8.350;2023-02-01T16:54:55;2.60;;;2.03;;
4911;SDS011;2471;47.056;8.350;2023-02-01T16:57:21;7.53;;;2.27;;
4911;SDS011;2471;47.056;8.350;2023-02-01T16:59:48;2.50;;;2.30;;
4911;SDS011;2471;47.056;8.350;2023-02-01T17:02:16;3.97;;;1.90;;
4911;SDS011;2471;47.056;8.350;2023-02-01T17:04:43;2.40;;;2.20;;
4911;SDS011;2471;47.056;8.350;2023-02-01T17:07:11;3.60;;;2.20;;
4911;SDS011;2471;47.056;8.350;2023-02-01T17:09:38;3.87;;;2.50;;
4911;SDS011;2471;47.056;8.350;2023-02-01T17:12:04;4.30;;;2.40;;
4911;SDS011;2471;47.056;8.350;2023-02-01T17:14:38;5.70;;;2.47;;
4911;SDS011;2471;47.056;8.350;2023-02-01T17:17:07;4.03;;;2.10;;
4911;SDS011;2471;47.056;8.350;2023-02-01T17:19:33;2.63;;;2.30;;
4911;SDS011;2471;47.056;8.350;2023-02-01T17:21:59;3.40;;;2.43;;